createdAt,value
2023-02-19T00:00:07.835Z,21.42
2023-02-19T00:02:35.493Z,21.42
2023-02-19T00:05:02.278Z,21.54
2023-02-19T00:07:29.048Z,21.63
2023-02-19T00:09:55.774Z,21.72
2023-02-19T00:12:22.522Z,21.85
2023-02-19T00:14:49.282Z,21.87
2023-02-19T00:17:16.019Z,21.92
2023-02-19T00:19:42.767Z,20.26
2023-02-19T00:22:09.663Z,18.17
2023-02-19T00:24:36.416Z,17.78
2023-02-19T00:27:03.148Z,19.45
2023-02-19T00:29:29.905Z,20.03
2023-02-19T00:31:56.799Z,20.55
2023-02-19T00:34:23.629Z,20.87
2023-02-19T00:36:50.387Z,21.02
2023-02-19T00:39:18.243Z,21.14
2023-02-19T00:41:46.186Z,21.36
2023-02-19T00:44:13.183Z,21.42
2023-02-19T00:46:40.016Z,21.40
2023-02-19T00:49:06.799Z,21.48
2023-02-19T00:51:33.620Z,21.65
2023-02-19T00:54:00.358Z,21.83
2023-02-19T00:56:27.090Z,21.94
2023-02-19T00:58:53.916Z,21.87
2023-02-19T01:01:20.872Z,21.93
2023-02-19T01:03:47.757Z,21.65
2023-02-19T01:06:14.571Z,18.86
2023-02-19T01:08:41.317Z,16.95
2023-02-19T01:11:08.406Z,18.62
2023-02-19T01:13:35.286Z,19.96
2023-02-19T01:16:02.070Z,20.48
2023-02-19T01:18:28.824Z,20.69
2023-02-19T01:20:55.571Z,20.94
2023-02-19T01:23:22.300Z,21.20
2023-02-19T01:25:49.089Z,21.21
2023-02-19T01:28:15.835Z,21.32
2023-02-19T01:30:42.580Z,21.39
2023-02-19T01:33:09.384Z,21.42
2023-02-19T01:35:36.138Z,21.58
2023-02-19T01:38:02.921Z,21.67
2023-02-19T01:40:29.650Z,21.69
2023-02-19T01:42:56.392Z,21.76
2023-02-19T01:45:23.167Z,21.78
2023-02-19T01:47:49.899Z,21.96
2023-02-19T01:50:16.704Z,21.98
2023-02-19T01:52:43.451Z,19.98
2023-02-19T01:55:10.186Z,17.79
2023-02-19T01:57:36.990Z,17.54
2023-02-19T02:00:03.731Z,19.64
2023-02-19T02:02:30.481Z,20.25
2023-02-19T02:04:57.311Z,20.63
2023-02-19T02:07:42.894Z,21.00
2023-02-19T02:10:21.812Z,21.10
2023-02-19T02:12:48.539Z,21.23
2023-02-19T02:15:16.108Z,21.32
2023-02-19T02:17:42.843Z,21.38
2023-02-19T02:20:09.578Z,21.46
2023-02-19T02:22:36.316Z,21.53
2023-02-19T02:25:03.100Z,21.68
2023-02-19T02:27:29.840Z,21.84
2023-02-19T02:29:56.653Z,21.94
2023-02-19T02:32:23.396Z,21.92
2023-02-19T02:34:50.134Z,21.99
2023-02-19T02:37:16.909Z,19.92
2023-02-19T02:39:43.717Z,17.59
2023-02-19T02:42:28.570Z,17.67
2023-02-19T02:45:14.160Z,19.85
2023-02-19T02:47:40.972Z,20.27
2023-02-19T02:50:07.761Z,20.72
2023-02-19T02:52:53.055Z,21.02
2023-02-19T02:55:19.843Z,21.14
2023-02-19T02:57:46.588Z,21.26
2023-02-19T03:00:13.335Z,21.32
2023-02-19T03:02:40.068Z,21.41
2023-02-19T03:05:25.365Z,21.50
2023-02-19T03:07:52.165Z,21.74
2023-02-19T03:10:18.909Z,21.74
2023-02-19T03:13:04.404Z,21.82
2023-02-19T03:15:49.654Z,21.87
2023-02-19T03:18:35.190Z,21.98
2023-02-19T03:21:01.922Z,20.53
2023-02-19T03:23:48.644Z,18.24
2023-02-19T03:26:15.671Z,18.20
2023-02-19T03:29:01.381Z,19.48
2023-02-19T03:31:28.174Z,20.37
2023-02-19T03:33:54.957Z,20.70
2023-02-19T03:36:27.878Z,20.96
2023-02-19T03:38:54.632Z,21.13
2023-02-19T03:41:21.354Z,21.32
2023-02-19T03:43:48.116Z,21.39
2023-02-19T03:46:14.890Z,21.56
2023-02-19T03:48:41.633Z,21.68
2023-02-19T03:51:08.652Z,21.59
2023-02-19T03:53:35.592Z,21.71
2023-02-19T03:56:02.338Z,21.78
2023-02-19T03:58:29.119Z,21.89
2023-02-19T04:00:55.856Z,22.03
2023-02-19T04:03:22.593Z,21.53
2023-02-19T04:05:49.344Z,19.54
2023-02-19T04:08:16.108Z,17.76
2023-02-19T04:10:42.847Z,19.06
2023-02-19T04:13:09.601Z,20.02
2023-02-19T04:15:36.330Z,20.45
2023-02-19T04:18:03.070Z,20.95
2023-02-19T04:20:29.840Z,21.21
2023-02-19T04:22:56.577Z,21.16
2023-02-19T04:25:23.351Z,21.35
2023-02-19T04:27:50.105Z,21.46
2023-02-19T04:30:16.901Z,21.74
2023-02-19T04:32:43.668Z,21.75
2023-02-19T04:35:10.515Z,21.88
2023-02-19T04:37:37.283Z,21.86
2023-02-19T04:40:04.054Z,21.99
2023-02-19T04:42:30.817Z,22.02
2023-02-19T04:44:57.557Z,21.36
2023-02-19T04:47:24.306Z,19.51
2023-02-19T04:49:51.075Z,18.53
2023-02-19T04:52:17.850Z,19.55
2023-02-19T04:54:44.577Z,20.23
2023-02-19T04:57:11.319Z,20.68
2023-02-19T04:59:38.100Z,20.95
2023-02-19T05:02:04.846Z,21.21
2023-02-19T05:04:31.652Z,21.34
2023-02-19T05:06:58.431Z,21.47
2023-02-19T05:09:25.177Z,21.57
2023-02-19T05:11:51.978Z,21.68
2023-02-19T05:14:18.779Z,21.78
2023-02-19T05:16:45.593Z,21.84
2023-02-19T05:19:12.523Z,22.00
2023-02-19T05:21:41.350Z,21.92
2023-02-19T05:24:08.140Z,19.91
2023-02-19T05:26:34.923Z,19.07
2023-02-19T05:29:01.672Z,19.45
2023-02-19T05:31:28.511Z,19.46
2023-02-19T05:33:55.322Z,19.72
2023-02-19T05:36:22.101Z,19.31
2023-02-19T05:38:48.830Z,19.89
2023-02-19T05:41:15.650Z,20.52
2023-02-19T05:43:42.439Z,20.76
2023-02-19T05:46:09.207Z,21.01
2023-02-19T05:48:35.983Z,21.16
2023-02-19T05:51:02.868Z,21.30
2023-02-19T05:53:29.866Z,21.39
2023-02-19T05:55:56.644Z,21.51
2023-02-19T05:58:23.394Z,21.61
2023-02-19T06:00:50.114Z,21.64
2023-02-19T06:03:16.851Z,21.77
2023-02-19T06:05:43.601Z,21.82
2023-02-19T06:08:10.335Z,21.94
2023-02-19T06:10:38.349Z,21.90
2023-02-19T06:13:05.071Z,20.68
2023-02-19T06:15:31.826Z,19.03
2023-02-19T06:17:58.584Z,19.02
2023-02-19T06:20:26.385Z,19.39
2023-02-19T06:22:53.152Z,20.02
2023-02-19T06:25:19.905Z,20.51
2023-02-19T06:27:46.668Z,20.84
2023-02-19T06:30:13.430Z,21.01
2023-02-19T06:32:40.185Z,21.26
2023-02-19T06:35:06.933Z,21.31
2023-02-19T06:37:33.703Z,21.43
2023-02-19T06:40:00.499Z,21.60
2023-02-19T06:42:27.247Z,21.77
2023-02-19T06:44:53.986Z,21.85
2023-02-19T06:47:20.738Z,21.84
2023-02-19T06:49:47.493Z,21.97
2023-02-19T06:52:14.234Z,21.94
2023-02-19T06:54:40.978Z,21.36
2023-02-19T06:57:07.724Z,19.76
2023-02-19T06:59:34.470Z,18.65
2023-02-19T07:02:01.350Z,19.49
2023-02-19T07:04:28.166Z,19.51
2023-02-19T07:06:54.939Z,19.52
2023-02-19T07:09:21.789Z,20.02
2023-02-19T07:11:48.568Z,20.54
2023-02-19T07:14:15.403Z,20.83
2023-02-19T07:16:42.306Z,20.99
2023-02-19T07:19:09.578Z,21.17
2023-02-19T07:21:37.694Z,21.42
2023-02-19T07:24:04.979Z,21.39
2023-02-19T07:26:31.746Z,21.47
2023-02-19T07:28:58.551Z,21.64
2023-02-19T07:31:25.432Z,21.78
2023-02-19T07:33:52.235Z,21.85
2023-02-19T07:36:19.014Z,21.88
2023-02-19T07:38:45.806Z,21.93
2023-02-19T07:41:12.836Z,21.44
2023-02-19T07:43:40.064Z,19.85
2023-02-19T07:46:06.938Z,18.60
2023-02-19T07:48:34.037Z,19.45
2023-02-19T07:51:00.757Z,19.59
2023-02-19T07:53:27.529Z,20.33
2023-02-19T07:55:54.327Z,20.65
2023-02-19T07:58:21.061Z,21.02
2023-02-19T08:00:47.887Z,21.13
2023-02-19T08:03:14.736Z,21.34
2023-02-19T08:05:41.510Z,21.43
2023-02-19T08:08:08.257Z,21.53
2023-02-19T08:10:53.790Z,21.59
2023-02-19T08:13:22.444Z,21.82
2023-02-19T08:15:49.328Z,21.82
2023-02-19T08:18:16.469Z,21.90
2023-02-19T08:20:43.246Z,22.01
2023-02-19T08:23:09.985Z,21.83
2023-02-19T08:25:36.739Z,20.11
2023-02-19T08:28:03.544Z,18.97
2023-02-19T08:30:30.357Z,19.54
2023-02-19T08:32:57.199Z,19.55
2023-02-19T08:35:23.948Z,20.28
2023-02-19T08:37:50.696Z,20.74
2023-02-19T08:40:17.443Z,21.03
2023-02-19T08:42:44.224Z,21.21
2023-02-19T08:45:10.991Z,21.40
2023-02-19T08:47:38.127Z,21.50
2023-02-19T08:50:05.058Z,21.58
2023-02-19T08:52:31.796Z,21.69
2023-02-19T08:54:58.712Z,21.86
2023-02-19T08:57:26.455Z,21.83
2023-02-19T08:59:53.198Z,21.94
2023-02-19T09:02:19.943Z,21.39
2023-02-19T09:04:46.707Z,19.59
2023-02-19T09:07:13.476Z,18.67
2023-02-19T09:09:40.229Z,19.42
2023-02-19T09:12:06.975Z,19.69
2023-02-19T09:14:34.415Z,20.37
2023-02-19T09:17:01.156Z,20.94
2023-02-19T09:19:27.921Z,21.05
2023-02-19T09:21:54.688Z,21.16
2023-02-19T09:24:21.428Z,21.35
2023-02-19T09:26:48.187Z,21.38
2023-02-19T09:29:15.322Z,21.54
2023-02-19T09:31:42.240Z,21.62
2023-02-19T09:34:09.041Z,21.78
2023-02-19T09:36:35.878Z,21.79
2023-02-19T09:39:04.368Z,21.85
2023-02-19T09:41:31.190Z,22.01
2023-02-19T09:43:57.919Z,21.31
2023-02-19T09:46:24.742Z,19.54
2023-02-19T09:48:51.542Z,18.75
2023-02-19T09:51:18.284Z,19.60
2023-02-19T09:53:45.081Z,19.75
2023-02-19T09:56:11.825Z,20.20
2023-02-19T09:58:38.546Z,20.67
2023-02-19T10:01:05.298Z,21.02
2023-02-19T10:03:34.183Z,21.20
2023-02-19T10:06:01.710Z,21.24
2023-02-19T10:08:28.464Z,21.60
2023-02-19T10:10:55.215Z,21.56
2023-02-19T10:13:22.043Z,21.68
2023-02-19T10:15:48.808Z,21.74
2023-02-19T10:18:15.577Z,21.88
2023-02-19T10:20:42.314Z,21.89
2023-02-19T10:23:09.049Z,21.92
2023-02-19T10:25:35.814Z,20.17
2023-02-19T10:28:02.581Z,18.74
2023-02-19T10:30:29.493Z,18.71
2023-02-19T10:32:56.260Z,19.50
2023-02-19T10:35:23.014Z,20.29
2023-02-19T10:37:49.781Z,20.85
2023-02-19T10:40:16.577Z,21.01
2023-02-19T10:42:43.419Z,21.27
2023-02-19T10:45:10.170Z,21.29
2023-02-19T10:47:37.144Z,21.38
2023-02-19T10:50:04.761Z,21.45
2023-02-19T10:52:31.659Z,21.65
2023-02-19T10:54:58.483Z,21.77
2023-02-19T10:57:29.643Z,21.75
2023-02-19T10:59:57.651Z,21.85
2023-02-19T11:02:49.746Z,22.01
2023-02-19T11:05:16.742Z,21.80
2023-02-19T11:07:43.477Z,19.58
2023-02-19T11:10:10.241Z,18.66
2023-02-19T11:12:36.992Z,19.61
2023-02-19T11:15:03.752Z,19.50
2023-02-19T11:17:30.505Z,20.05
2023-02-19T11:19:57.262Z,20.52
2023-02-19T11:22:24.016Z,20.98
2023-02-19T11:24:51.796Z,21.04
2023-02-19T11:27:19.289Z,21.18
2023-02-19T11:29:46.011Z,21.25
2023-02-19T11:32:12.817Z,21.51
2023-02-19T11:34:39.580Z,21.62
2023-02-19T11:37:06.317Z,21.64
2023-02-19T11:39:33.747Z,21.82
2023-02-19T11:42:00.476Z,21.80
2023-02-19T11:44:30.113Z,21.86
2023-02-19T11:46:56.852Z,21.32
2023-02-19T11:49:23.600Z,19.19
2023-02-19T11:51:52.717Z,18.58
2023-02-19T11:54:19.780Z,19.32
2023-02-19T11:56:46.562Z,19.60
2023-02-19T11:59:13.443Z,20.55
2023-02-19T12:01:40.483Z,20.86
2023-02-19T12:04:07.244Z,21.02
2023-02-19T12:06:33.993Z,21.25
2023-02-19T12:09:00.748Z,21.40
2023-02-19T12:11:27.486Z,21.48
2023-02-19T12:13:54.281Z,21.63
2023-02-19T12:16:21.083Z,21.72
2023-02-19T12:18:47.849Z,21.66
2023-02-19T12:21:14.612Z,21.81
2023-02-19T12:23:41.369Z,21.89
2023-02-19T12:26:08.305Z,21.93
2023-02-19T12:28:35.205Z,21.95
2023-02-19T12:31:01.978Z,20.14
2023-02-19T12:33:28.757Z,18.78
2023-02-19T12:35:55.497Z,19.22
2023-02-19T12:38:23.201Z,19.73
2023-02-19T12:40:49.947Z,20.35
2023-02-19T12:43:16.767Z,20.85
2023-02-19T12:45:43.530Z,21.00
2023-02-19T12:48:10.418Z,21.22
2023-02-19T12:50:37.174Z,21.31
2023-02-19T12:53:03.932Z,21.47
2023-02-19T12:55:30.744Z,21.63
2023-02-19T12:57:57.547Z,21.65
2023-02-19T13:00:24.352Z,21.85
2023-02-19T13:02:51.136Z,21.85
2023-02-19T13:05:17.966Z,21.88
2023-02-19T13:07:44.722Z,22.11
2023-02-19T13:10:11.488Z,20.35
2023-02-19T13:12:38.232Z,18.98
2023-02-19T13:15:05.143Z,18.85
2023-02-19T13:17:31.918Z,19.64
2023-02-19T13:19:58.654Z,19.78
2023-02-19T13:22:43.847Z,20.46
2023-02-19T13:25:10.582Z,20.81
2023-02-19T13:27:37.351Z,21.07
2023-02-19T13:30:04.248Z,21.17
2023-02-19T13:32:31.124Z,21.34
2023-02-19T13:34:57.934Z,21.54
2023-02-19T13:37:24.689Z,21.61
2023-02-19T13:39:51.503Z,21.67
2023-02-19T13:42:18.238Z,21.81
2023-02-19T13:44:44.988Z,21.88
2023-02-19T13:47:11.728Z,21.88
2023-02-19T13:49:38.528Z,21.98
2023-02-19T13:52:05.293Z,21.49
2023-02-19T13:54:33.280Z,19.47
2023-02-19T13:57:00.037Z,18.50
2023-02-19T13:59:26.787Z,19.51
2023-02-19T14:01:53.624Z,19.64
2023-02-19T14:04:20.461Z,20.22
2023-02-19T14:06:47.210Z,20.71
2023-02-19T14:09:13.951Z,21.02
2023-02-19T14:11:40.692Z,21.16
2023-02-19T14:14:09.744Z,21.27
2023-02-19T14:16:37.773Z,21.45
2023-02-19T14:19:04.526Z,21.54
2023-02-19T14:21:31.289Z,21.68
2023-02-19T14:23:58.202Z,21.78
2023-02-19T14:26:24.981Z,21.88
2023-02-19T14:28:51.731Z,21.88
2023-02-19T14:31:18.911Z,21.94
2023-02-19T14:33:45.922Z,21.96
2023-02-19T14:36:12.680Z,20.48
2023-02-19T14:38:39.439Z,19.10
2023-02-19T14:41:06.186Z,18.79
2023-02-19T14:43:32.923Z,19.81
2023-02-19T14:45:59.694Z,20.34
2023-02-19T14:48:26.643Z,20.75
2023-02-19T14:50:53.403Z,21.02
2023-02-19T14:53:20.134Z,21.25
2023-02-19T14:55:46.868Z,21.30
2023-02-19T14:58:13.623Z,21.41
2023-02-19T15:00:40.410Z,21.49
2023-02-19T15:03:07.161Z,21.61
2023-02-19T15:05:33.906Z,21.74
2023-02-19T15:08:00.705Z,21.90
2023-02-19T15:10:27.455Z,21.88
2023-02-19T15:12:54.204Z,22.00
2023-02-19T15:15:20.935Z,21.16
2023-02-19T15:17:47.774Z,19.40
2023-02-19T15:20:14.518Z,18.42
2023-02-19T15:22:41.471Z,19.42
2023-02-19T15:25:08.234Z,19.77
2023-02-19T15:27:35.420Z,20.44
2023-02-19T15:30:02.280Z,20.86
2023-02-19T15:32:29.113Z,21.05
2023-02-19T15:34:55.899Z,21.08
2023-02-19T15:37:22.614Z,21.30
2023-02-19T15:39:49.396Z,21.37
2023-02-19T15:42:16.140Z,21.57
2023-02-19T15:44:42.943Z,21.61
2023-02-19T15:47:09.676Z,21.75
2023-02-19T15:49:36.452Z,21.84
2023-02-19T15:52:03.204Z,21.85
2023-02-19T15:54:30.470Z,21.97
2023-02-19T15:56:57.213Z,21.58
2023-02-19T15:59:23.952Z,19.24
2023-02-19T16:01:50.721Z,17.82
2023-02-19T16:04:17.509Z,19.17
2023-02-19T16:06:44.247Z,19.87
2023-02-19T16:09:10.984Z,20.64
2023-02-19T16:11:37.784Z,20.88
2023-02-19T16:14:04.584Z,21.11
2023-02-19T16:16:31.390Z,21.07
2023-02-19T16:18:58.175Z,21.27
2023-02-19T16:21:25.410Z,21.45
2023-02-19T16:23:54.405Z,21.58
2023-02-19T16:26:21.174Z,21.65
2023-02-19T16:28:47.900Z,21.71
2023-02-19T16:31:15.198Z,21.83
2023-02-19T16:33:42.220Z,21.85
2023-02-19T16:36:08.948Z,21.98
2023-02-19T16:38:35.923Z,21.75
2023-02-19T16:41:02.837Z,18.98
2023-02-19T16:43:31.270Z,17.48
2023-02-19T16:45:58.057Z,18.90
2023-02-19T16:48:24.851Z,19.90
2023-02-19T16:50:51.666Z,20.44
2023-02-19T16:53:19.091Z,20.95
2023-02-19T16:55:45.911Z,21.17
2023-02-19T16:58:12.648Z,21.31
2023-02-19T17:00:40.202Z,21.31
2023-02-19T17:03:08.896Z,21.39
2023-02-19T17:05:35.733Z,21.55
2023-02-19T17:08:02.521Z,21.54
2023-02-19T17:10:29.266Z,21.68
2023-02-19T17:12:56.013Z,21.85
2023-02-19T17:15:22.767Z,21.86
2023-02-19T17:17:49.523Z,21.95
2023-02-19T17:20:16.268Z,22.00
2023-02-19T17:22:43.014Z,21.48
2023-02-19T17:25:09.795Z,18.85
2023-02-19T17:27:36.561Z,17.27
2023-02-19T17:30:03.367Z,19.05
2023-02-19T17:32:30.311Z,19.97
2023-02-19T17:34:57.108Z,20.78
2023-02-19T17:37:23.929Z,20.81
2023-02-19T17:39:50.672Z,21.12
2023-02-19T17:42:18.687Z,21.23
2023-02-19T17:44:47.256Z,21.35
2023-02-19T17:47:14.117Z,21.38
2023-02-19T17:49:40.858Z,21.59
2023-02-19T17:52:07.600Z,21.65
2023-02-19T17:54:34.423Z,21.76
2023-02-19T17:57:01.179Z,21.76
2023-02-19T17:59:27.938Z,21.84
2023-02-19T18:01:55.045Z,21.90
2023-02-19T18:04:21.875Z,22.15
2023-02-19T18:06:48.781Z,21.01
2023-02-19T18:09:18.114Z,18.18
2023-02-19T18:11:45.540Z,17.03
2023-02-19T18:14:12.294Z,19.04
2023-02-19T18:16:39.050Z,20.01
2023-02-19T18:19:05.792Z,20.42
2023-02-19T18:21:32.527Z,20.68
2023-02-19T18:23:59.274Z,20.89
2023-02-19T18:26:25.995Z,21.18
2023-02-19T18:28:52.733Z,21.19
2023-02-19T18:31:19.544Z,21.31
2023-02-19T18:33:46.460Z,21.48
2023-02-19T18:36:13.213Z,21.55
2023-02-19T18:38:39.987Z,21.68
2023-02-19T18:41:06.752Z,21.76
2023-02-19T18:43:33.489Z,21.81
2023-02-19T18:46:00.309Z,21.87
2023-02-19T18:48:27.077Z,21.95
2023-02-19T18:50:53.817Z,22.03
2023-02-19T18:53:20.630Z,19.87
2023-02-19T18:55:47.568Z,17.83
2023-02-19T18:58:14.336Z,18.43
2023-02-19T19:00:41.133Z,19.97
2023-02-19T19:03:07.932Z,20.29
2023-02-19T19:05:34.656Z,20.91
2023-02-19T19:08:01.771Z,21.10
2023-02-19T19:10:28.676Z,21.09
2023-02-19T19:12:55.485Z,21.25
2023-02-19T19:15:22.403Z,21.48
2023-02-19T19:17:49.498Z,21.49
2023-02-19T19:20:16.338Z,21.53
2023-02-19T19:22:43.102Z,21.66
2023-02-19T19:25:09.916Z,21.69
2023-02-19T19:27:36.715Z,21.81
2023-02-19T19:30:03.582Z,21.90
2023-02-19T19:32:30.350Z,22.13
2023-02-19T19:34:57.610Z,20.67
2023-02-19T19:37:26.170Z,18.05
2023-02-19T19:39:54.214Z,17.15
2023-02-19T19:42:21.153Z,19.05
2023-02-19T19:44:47.898Z,20.12
2023-02-19T19:47:14.784Z,20.54
2023-02-19T19:49:41.605Z,20.84
2023-02-19T19:52:08.405Z,21.00
2023-02-19T19:54:36.266Z,21.18
2023-02-19T19:57:03.026Z,21.29
2023-02-19T19:59:29.839Z,21.47
2023-02-19T20:01:57.788Z,21.38
2023-02-19T20:04:24.666Z,21.62
2023-02-19T20:06:51.457Z,21.60
2023-02-19T20:09:18.216Z,21.65
2023-02-19T20:11:45.049Z,21.76
2023-02-19T20:14:11.859Z,21.88
2023-02-19T20:16:38.614Z,21.95
2023-02-19T20:19:05.366Z,21.28
2023-02-19T20:21:32.098Z,18.53
2023-02-19T20:23:58.841Z,16.96
2023-02-19T20:26:25.731Z,19.03
2023-02-19T20:28:52.493Z,19.95
2023-02-19T20:31:19.657Z,20.41
2023-02-19T20:33:47.680Z,20.73
2023-02-19T20:36:14.428Z,20.99
2023-02-19T20:38:43.345Z,21.18
2023-02-19T20:41:10.495Z,21.39
2023-02-19T20:43:37.434Z,21.36
2023-02-19T20:46:04.384Z,21.51
2023-02-19T20:48:31.199Z,21.68
2023-02-19T20:50:59.508Z,21.74
2023-02-19T20:53:26.328Z,21.81
2023-02-19T20:55:53.138Z,21.84
2023-02-19T20:58:21.004Z,21.86
2023-02-19T21:00:47.887Z,21.91
2023-02-19T21:03:14.670Z,22.06
2023-02-19T21:05:42.844Z,20.15
2023-02-19T21:08:11.559Z,18.16
2023-02-19T21:10:38.833Z,18.23
2023-02-19T21:13:05.653Z,19.90
2023-02-19T21:15:32.571Z,20.58
2023-02-19T21:17:59.403Z,20.94
2023-02-19T21:20:26.201Z,21.14
2023-02-19T21:22:52.966Z,21.23
2023-02-19T21:25:19.706Z,21.31
2023-02-19T21:27:46.506Z,21.42
2023-02-19T21:30:13.370Z,21.54
2023-02-19T21:32:40.139Z,21.58
2023-02-19T21:35:06.918Z,21.65
2023-02-19T21:37:33.787Z,21.78
2023-02-19T21:40:00.610Z,21.85
2023-02-19T21:42:27.549Z,21.95
2023-02-19T21:44:54.329Z,21.93
2023-02-19T21:47:21.063Z,19.22
2023-02-19T21:49:47.819Z,17.33
2023-02-19T21:52:14.939Z,18.13
2023-02-19T21:54:41.693Z,19.82
2023-02-19T21:57:09.380Z,20.18
2023-02-19T21:59:36.153Z,20.63
2023-02-19T22:02:02.906Z,20.91
2023-02-19T22:04:29.671Z,21.11
2023-02-19T22:06:56.585Z,21.27
2023-02-19T22:09:23.341Z,21.32
2023-02-19T22:11:50.145Z,21.46
2023-02-19T22:14:16.928Z,21.45
2023-02-19T22:16:43.829Z,21.68
2023-02-19T22:19:11.920Z,21.69
2023-02-19T22:21:38.720Z,21.72
2023-02-19T22:24:05.442Z,21.90
2023-02-19T22:26:32.257Z,21.91
2023-02-19T22:28:59.468Z,21.95
2023-02-19T22:31:26.398Z,21.44
2023-02-19T22:33:53.341Z,18.57
2023-02-19T22:36:20.072Z,16.93
2023-02-19T22:38:46.880Z,19.04
2023-02-19T22:41:13.754Z,20.18
2023-02-19T22:43:40.493Z,20.45
2023-02-19T22:46:07.256Z,20.72
2023-02-19T22:48:34.012Z,21.05
2023-02-19T22:51:02.247Z,21.19
2023-02-19T22:53:29.091Z,21.31
2023-02-19T22:55:55.869Z,21.26
2023-02-19T22:58:22.653Z,21.43
2023-02-19T23:00:49.443Z,21.57
2023-02-19T23:03:16.303Z,21.70
2023-02-19T23:05:43.060Z,21.68
2023-02-19T23:08:09.810Z,21.84
2023-02-19T23:10:36.661Z,21.81
2023-02-19T23:13:03.588Z,21.86
2023-02-19T23:15:30.347Z,22.07
2023-02-19T23:17:57.131Z,20.01
2023-02-19T23:20:23.883Z,17.67
2023-02-19T23:22:50.626Z,17.80
2023-02-19T23:25:17.393Z,19.94
2023-02-19T23:27:44.138Z,20.32
2023-02-19T23:30:11.045Z,20.66
2023-02-19T23:32:37.823Z,20.84
2023-02-19T23:35:04.603Z,21.10
2023-02-19T23:37:31.984Z,21.22
2023-02-19T23:39:58.771Z,21.26
2023-02-19T23:42:25.594Z,21.36
2023-02-19T23:44:52.335Z,21.37
2023-02-19T23:47:20.017Z,21.50
2023-02-19T23:49:46.791Z,21.58
2023-02-19T23:52:13.536Z,21.67
2023-02-19T23:54:40.634Z,21.75
2023-02-19T23:57:07.473Z,21.88
2023-02-19T23:59:34.214Z,21.91
